sensor_id;sensor_type;location;lat;lon;timestamp;temperature;humidity
17994;DHT22;9122;48.406;9.984;2022-08-06T00:02:31;24.10;84.30
17994;DHT22;9122;48.406;9.984;2022-08-06T00:05:15;24.00;84.30
17994;DHT22;9122;48.406;9.984;2022-08-06T00:08:00;24.00;83.00
17994;DHT22;9122;48.406;9.984;2022-08-06T00:10:45;23.90;83.30
17994;DHT22;9122;48.406;9.984;2022-08-06T00:13:29;23.80;83.80
17994;DHT22;9122;48.406;9.984;2022-08-06T00:16:15;23.80;84.00
17994;DHT22;9122;48.406;9.984;2022-08-06T00:19:00;23.70;84.20
17994;DHT22;9122;48.406;9.984;2022-08-06T00:21:44;23.70;84.90
17994;DHT22;9122;48.406;9.984;2022-08-06T00:24:29;23.60;84.20
17994;DHT22;9122;48.406;9.984;2022-08-06T00:27:14;23.60;83.80
17994;DHT22;9122;48.406;9.984;2022-08-06T00:29:58;23.60;84.00
17994;DHT22;9122;48.406;9.984;2022-08-06T00:32:43;23.50;84.70
17994;DHT22;9122;48.406;9.984;2022-08-06T00:35:27;23.40;85.00
17994;DHT22;9122;48.406;9.984;2022-08-06T00:38:12;23.40;84.90
17994;DHT22;9122;48.406;9.984;2022-08-06T00:40:57;23.40;86.00
17994;DHT22;9122;48.406;9.984;2022-08-06T00:43:41;23.30;86.70
17994;DHT22;9122;48.406;9.984;2022-08-06T00:46:26;23.30;87.20
17994;DHT22;9122;48.406;9.984;2022-08-06T00:49:11;23.30;87.90
17994;DHT22;9122;48.406;9.984;2022-08-06T00:51:56;23.30;87.70
17994;DHT22;9122;48.406;9.984;2022-08-06T00:54:40;23.20;87.80
17994;DHT22;9122;48.406;9.984;2022-08-06T00:57:25;23.20;86.20
17994;DHT22;9122;48.406;9.984;2022-08-06T01:00:10;23.10;83.60
17994;DHT22;9122;48.406;9.984;2022-08-06T01:02:54;23.10;82.10
17994;DHT22;9122;48.406;9.984;2022-08-06T01:05:39;23.00;81.60
17994;DHT22;9122;48.406;9.984;2022-08-06T01:08:23;23.00;81.10
17994;DHT22;9122;48.406;9.984;2022-08-06T01:11:08;22.90;80.30
17994;DHT22;9122;48.406;9.984;2022-08-06T01:13:53;22.80;79.90
17994;DHT22;9122;48.406;9.984;2022-08-06T01:16:51;22.80;79.20
17994;DHT22;9122;48.406;9.984;2022-08-06T01:19:50;22.70;79.40
17994;DHT22;9122;48.406;9.984;2022-08-06T01:29:28;22.50;79.00
17994;DHT22;9122;48.406;9.984;2022-08-06T01:32:43;22.40;78.80
17994;DHT22;9122;48.406;9.984;2022-08-06T01:35:33;22.40;78.30
17994;DHT22;9122;48.406;9.984;2022-08-06T01:38:27;22.30;78.20
17994;DHT22;9122;48.406;9.984;2022-08-06T01:41:17;22.30;78.00
17994;DHT22;9122;48.406;9.984;2022-08-06T01:44:34;22.20;77.60
17994;DHT22;9122;48.406;9.984;2022-08-06T01:47:21;22.20;77.70
17994;DHT22;9122;48.406;9.984;2022-08-06T01:50:10;22.10;77.80
17994;DHT22;9122;48.406;9.984;2022-08-06T01:52:58;22.10;78.10
17994;DHT22;9122;48.406;9.984;2022-08-06T01:55:46;22.00;78.00
17994;DHT22;9122;48.406;9.984;2022-08-06T01:58:36;22.00;78.60
17994;DHT22;9122;48.406;9.984;2022-08-06T02:01:22;22.00;78.10
17994;DHT22;9122;48.406;9.984;2022-08-06T02:04:10;21.90;77.70
17994;DHT22;9122;48.406;9.984;2022-08-06T02:06:56;21.90;77.70
17994;DHT22;9122;48.406;9.984;2022-08-06T02:09:43;21.90;77.90
17994;DHT22;9122;48.406;9.984;2022-08-06T02:12:29;21.80;77.60
17994;DHT22;9122;48.406;9.984;2022-08-06T02:15:20;21.80;77.80
17994;DHT22;9122;48.406;9.984;2022-08-06T02:18:06;21.70;77.50
17994;DHT22;9122;48.406;9.984;2022-08-06T02:20:54;21.70;77.70
17994;DHT22;9122;48.406;9.984;2022-08-06T02:23:39;21.70;77.90
17994;DHT22;9122;48.406;9.984;2022-08-06T02:26:25;21.60;78.00
17994;DHT22;9122;48.406;9.984;2022-08-06T02:29:14;21.60;78.10
17994;DHT22;9122;48.406;9.984;2022-08-06T02:32:00;21.50;78.40
17994;DHT22;9122;48.406;9.984;2022-08-06T02:34:45;21.50;78.80
17994;DHT22;9122;48.406;9.984;2022-08-06T02:37:33;21.40;78.40
17994;DHT22;9122;48.406;9.984;2022-08-06T02:40:27;21.40;79.00
17994;DHT22;9122;48.406;9.984;2022-08-06T02:43:18;21.30;79.40
17994;DHT22;9122;48.406;9.984;2022-08-06T02:46:27;21.30;79.30
17994;DHT22;9122;48.406;9.984;2022-08-06T02:49:18;21.30;79.30
17994;DHT22;9122;48.406;9.984;2022-08-06T02:52:11;21.30;79.60
17994;DHT22;9122;48.406;9.984;2022-08-06T02:55:02;21.30;79.40
17994;DHT22;9122;48.406;9.984;2022-08-06T02:57:57;21.20;79.30
17994;DHT22;9122;48.406;9.984;2022-08-06T03:00:45;21.20;79.70
17994;DHT22;9122;48.406;9.984;2022-08-06T03:03:32;21.20;79.40
17994;DHT22;9122;48.406;9.984;2022-08-06T03:06:18;21.20;79.20
17994;DHT22;9122;48.406;9.984;2022-08-06T03:09:04;21.20;78.80
17994;DHT22;9122;48.406;9.984;2022-08-06T03:11:50;21.20;79.10
17994;DHT22;9122;48.406;9.984;2022-08-06T03:14:37;21.20;79.30
17994;DHT22;9122;48.406;9.984;2022-08-06T03:17:23;21.10;79.00
17994;DHT22;9122;48.406;9.984;2022-08-06T03:20:08;21.10;79.00
17994;DHT22;9122;48.406;9.984;2022-08-06T03:22:57;21.10;79.20
17994;DHT22;9122;48.406;9.984;2022-08-06T03:25:44;21.10;79.40
17994;DHT22;9122;48.406;9.984;2022-08-06T03:28:28;21.00;79.00
17994;DHT22;9122;48.406;9.984;2022-08-06T03:31:14;21.00;78.70
17994;DHT22;9122;48.406;9.984;2022-08-06T03:33:59;21.00;78.90
17994;DHT22;9122;48.406;9.984;2022-08-06T03:36:45;20.90;78.90
17994;DHT22;9122;48.406;9.984;2022-08-06T03:39:30;21.00;79.30
17994;DHT22;9122;48.406;9.984;2022-08-06T03:42:17;20.90;79.60
17994;DHT22;9122;48.406;9.984;2022-08-06T03:45:02;20.90;79.30
17994;DHT22;9122;48.406;9.984;2022-08-06T03:47:54;20.90;79.30
17994;DHT22;9122;48.406;9.984;2022-08-06T03:50:42;20.90;79.60
17994;DHT22;9122;48.406;9.984;2022-08-06T03:53:31;20.90;80.00
17994;DHT22;9122;48.406;9.984;2022-08-06T03:56:23;20.90;79.90
17994;DHT22;9122;48.406;9.984;2022-08-06T03:59:09;20.80;79.80
17994;DHT22;9122;48.406;9.984;2022-08-06T04:01:56;20.80;79.60
17994;DHT22;9122;48.406;9.984;2022-08-06T04:04:42;20.80;79.70
17994;DHT22;9122;48.406;9.984;2022-08-06T04:07:28;20.70;78.90
17994;DHT22;9122;48.406;9.984;2022-08-06T04:10:15;20.70;79.10
17994;DHT22;9122;48.406;9.984;2022-08-06T04:13:08;20.70;79.40
17994;DHT22;9122;48.406;9.984;2022-08-06T04:15:54;20.70;79.40
17994;DHT22;9122;48.406;9.984;2022-08-06T04:18:40;20.70;79.40
17994;DHT22;9122;48.406;9.984;2022-08-06T04:21:27;20.70;79.30
17994;DHT22;9122;48.406;9.984;2022-08-06T04:24:12;20.60;79.40
17994;DHT22;9122;48.406;9.984;2022-08-06T04:26:58;20.60;79.40
17994;DHT22;9122;48.406;9.984;2022-08-06T04:29:44;20.60;79.50
17994;DHT22;9122;48.406;9.984;2022-08-06T04:32:29;20.60;80.00
17994;DHT22;9122;48.406;9.984;2022-08-06T04:35:15;20.50;79.50
17994;DHT22;9122;48.406;9.984;2022-08-06T04:38:00;20.50;79.50
17994;DHT22;9122;48.406;9.984;2022-08-06T04:40:46;20.50;79.80
17994;DHT22;9122;48.406;9.984;2022-08-06T04:43:31;20.50;80.00
17994;DHT22;9122;48.406;9.984;2022-08-06T04:46:16;20.50;80.00
17994;DHT22;9122;48.406;9.984;2022-08-06T04:49:01;20.50;79.80
17994;DHT22;9122;48.406;9.984;2022-08-06T04:51:47;20.50;79.90
17994;DHT22;9122;48.406;9.984;2022-08-06T04:54:31;20.50;79.80
17994;DHT22;9122;48.406;9.984;2022-08-06T04:57:15;20.40;80.00
17994;DHT22;9122;48.406;9.984;2022-08-06T05:00:00;20.40;80.30
17994;DHT22;9122;48.406;9.984;2022-08-06T05:02:44;20.40;80.40
17994;DHT22;9122;48.406;9.984;2022-08-06T05:05:31;20.30;80.60
17994;DHT22;9122;48.406;9.984;2022-08-06T05:08:18;20.30;80.80
17994;DHT22;9122;48.406;9.984;2022-08-06T05:11:18;20.30;80.80
17994;DHT22;9122;48.406;9.984;2022-08-06T05:14:06;20.30;80.80
17994;DHT22;9122;48.406;9.984;2022-08-06T05:16:54;20.20;80.70
17994;DHT22;9122;48.406;9.984;2022-08-06T05:19:46;20.20;80.80
17994;DHT22;9122;48.406;9.984;2022-08-06T05:22:32;20.20;81.00
17994;DHT22;9122;48.406;9.984;2022-08-06T05:25:19;20.20;81.10
17994;DHT22;9122;48.406;9.984;2022-08-06T05:28:05;20.20;81.30
17994;DHT22;9122;48.406;9.984;2022-08-06T05:30:51;20.20;81.30
17994;DHT22;9122;48.406;9.984;2022-08-06T05:33:37;20.10;81.20
17994;DHT22;9122;48.406;9.984;2022-08-06T05:36:21;20.10;81.00
17994;DHT22;9122;48.406;9.984;2022-08-06T05:39:06;20.10;80.90
17994;DHT22;9122;48.406;9.984;2022-08-06T05:41:51;20.10;80.90
17994;DHT22;9122;48.406;9.984;2022-08-06T05:44:35;20.10;80.80
17994;DHT22;9122;48.406;9.984;2022-08-06T05:47:23;20.10;80.40
17994;DHT22;9122;48.406;9.984;2022-08-06T05:50:11;20.10;80.30
17994;DHT22;9122;48.406;9.984;2022-08-06T05:53:15;20.00;80.10
17994;DHT22;9122;48.406;9.984;2022-08-06T05:56:10;20.00;80.50
17994;DHT22;9122;48.406;9.984;2022-08-06T05:59:05;20.00;80.50
17994;DHT22;9122;48.406;9.984;2022-08-06T06:01:50;20.00;80.50
17994;DHT22;9122;48.406;9.984;2022-08-06T06:04:36;20.00;80.40
17994;DHT22;9122;48.406;9.984;2022-08-06T06:07:21;20.00;80.20
17994;DHT22;9122;48.406;9.984;2022-08-06T06:10:06;20.00;80.30
17994;DHT22;9122;48.406;9.984;2022-08-06T06:12:52;19.90;80.30
17994;DHT22;9122;48.406;9.984;2022-08-06T06:15:42;19.90;80.30
17994;DHT22;9122;48.406;9.984;2022-08-06T06:25:08;19.90;80.40
17994;DHT22;9122;48.406;9.984;2022-08-06T06:31:13;19.90;80.30
17994;DHT22;9122;48.406;9.984;2022-08-06T06:36:59;19.90;80.70
17994;DHT22;9122;48.406;9.984;2022-08-06T06:39:52;19.90;81.00
17994;DHT22;9122;48.406;9.984;2022-08-06T06:43:27;19.80;80.90
17994;DHT22;9122;48.406;9.984;2022-08-06T06:48:58;19.80;81.30
17994;DHT22;9122;48.406;9.984;2022-08-06T06:51:48;19.80;81.60
17994;DHT22;9122;48.406;9.984;2022-08-06T06:54:43;19.80;81.40
17994;DHT22;9122;48.406;9.984;2022-08-06T06:57:31;19.80;80.90
17994;DHT22;9122;48.406;9.984;2022-08-06T07:00:16;19.80;80.70
17994;DHT22;9122;48.406;9.984;2022-08-06T07:03:03;19.80;81.00
17994;DHT22;9122;48.406;9.984;2022-08-06T07:05:50;19.80;81.20
17994;DHT22;9122;48.406;9.984;2022-08-06T07:08:39;19.80;81.30
17994;DHT22;9122;48.406;9.984;2022-08-06T07:11:29;19.80;81.20
17994;DHT22;9122;48.406;9.984;2022-08-06T07:14:15;19.90;81.00
17994;DHT22;9122;48.406;9.984;2022-08-06T07:17:00;19.80;80.90
17994;DHT22;9122;48.406;9.984;2022-08-06T07:19:47;19.80;81.20
17994;DHT22;9122;48.406;9.984;2022-08-06T07:22:35;19.90;80.30
17994;DHT22;9122;48.406;9.984;2022-08-06T07:25:20;19.90;79.90
17994;DHT22;9122;48.406;9.984;2022-08-06T07:28:05;19.90;79.50
17994;DHT22;9122;48.406;9.984;2022-08-06T07:30:52;19.90;79.60
17994;DHT22;9122;48.406;9.984;2022-08-06T07:33:40;19.90;79.50
17994;DHT22;9122;48.406;9.984;2022-08-06T07:36:33;19.90;79.40
17994;DHT22;9122;48.406;9.984;2022-08-06T07:39:24;19.90;79.30
17994;DHT22;9122;48.406;9.984;2022-08-06T07:42:13;19.90;78.80
17994;DHT22;9122;48.406;9.984;2022-08-06T07:45:03;19.90;79.10
17994;DHT22;9122;48.406;9.984;2022-08-06T07:47:49;19.90;78.70
17994;DHT22;9122;48.406;9.984;2022-08-06T07:50:35;20.00;79.00
17994;DHT22;9122;48.406;9.984;2022-08-06T07:53:21;20.00;79.10
17994;DHT22;9122;48.406;9.984;2022-08-06T07:56:06;20.00;78.50
17994;DHT22;9122;48.406;9.984;2022-08-06T07:58:55;20.00;78.80
17994;DHT22;9122;48.406;9.984;2022-08-06T08:01:40;20.00;79.10
17994;DHT22;9122;48.406;9.984;2022-08-06T08:04:25;20.00;79.00
17994;DHT22;9122;48.406;9.984;2022-08-06T08:07:30;20.00;78.80
17994;DHT22;9122;48.406;9.984;2022-08-06T08:10:17;20.00;79.20
17994;DHT22;9122;48.406;9.984;2022-08-06T08:13:03;20.10;79.40
17994;DHT22;9122;48.406;9.984;2022-08-06T08:15:48;20.10;79.00
17994;DHT22;9122;48.406;9.984;2022-08-06T08:18:32;20.10;79.00
17994;DHT22;9122;48.406;9.984;2022-08-06T08:21:18;20.10;79.00
17994;DHT22;9122;48.406;9.984;2022-08-06T08:24:04;20.20;78.80
17994;DHT22;9122;48.406;9.984;2022-08-06T08:26:48;20.20;78.60
17994;DHT22;9122;48.406;9.984;2022-08-06T08:29:33;20.20;78.60
17994;DHT22;9122;48.406;9.984;2022-08-06T08:32:18;20.30;78.40
17994;DHT22;9122;48.406;9.984;2022-08-06T08:35:03;20.30;78.40
17994;DHT22;9122;48.406;9.984;2022-08-06T08:37:48;20.30;78.10
17994;DHT22;9122;48.406;9.984;2022-08-06T08:40:34;20.40;78.00
17994;DHT22;9122;48.406;9.984;2022-08-06T08:43:25;20.40;77.90
17994;DHT22;9122;48.406;9.984;2022-08-06T08:46:13;20.40;77.70
17994;DHT22;9122;48.406;9.984;2022-08-06T08:49:01;20.40;77.70
17994;DHT22;9122;48.406;9.984;2022-08-06T08:51:47;20.40;77.80
17994;DHT22;9122;48.406;9.984;2022-08-06T08:54:35;20.40;77.20
17994;DHT22;9122;48.406;9.984;2022-08-06T08:57:20;20.40;76.70
17994;DHT22;9122;48.406;9.984;2022-08-06T09:00:07;20.40;76.00
17994;DHT22;9122;48.406;9.984;2022-08-06T09:02:52;20.40;75.70
17994;DHT22;9122;48.406;9.984;2022-08-06T09:05:37;20.40;75.70
17994;DHT22;9122;48.406;9.984;2022-08-06T09:08:21;20.40;75.90
17994;DHT22;9122;48.406;9.984;2022-08-06T09:11:06;20.40;75.70
17994;DHT22;9122;48.406;9.984;2022-08-06T09:13:51;20.40;75.60
17994;DHT22;9122;48.406;9.984;2022-08-06T09:16:37;20.50;75.70
17994;DHT22;9122;48.406;9.984;2022-08-06T09:19:21;20.50;75.40
17994;DHT22;9122;48.406;9.984;2022-08-06T09:22:06;20.60;75.50
17994;DHT22;9122;48.406;9.984;2022-08-06T09:24:50;20.60;75.50
17994;DHT22;9122;48.406;9.984;2022-08-06T09:27:35;20.60;75.10
17994;DHT22;9122;48.406;9.984;2022-08-06T09:30:19;20.70;74.50
17994;DHT22;9122;48.406;9.984;2022-08-06T09:33:10;20.70;74.60
17994;DHT22;9122;48.406;9.984;2022-08-06T09:36:05;20.70;74.90
17994;DHT22;9122;48.406;9.984;2022-08-06T09:38:52;20.70;75.20
17994;DHT22;9122;48.406;9.984;2022-08-06T09:41:49;20.80;75.20
17994;DHT22;9122;48.406;9.984;2022-08-06T09:44:34;20.80;75.00
17994;DHT22;9122;48.406;9.984;2022-08-06T09:47:19;20.80;74.60
17994;DHT22;9122;48.406;9.984;2022-08-06T09:50:07;20.90;74.20
17994;DHT22;9122;48.406;9.984;2022-08-06T09:53:02;20.90;74.40
17994;DHT22;9122;48.406;9.984;2022-08-06T09:55:47;20.90;74.70
17994;DHT22;9122;48.406;9.984;2022-08-06T09:58:36;20.90;74.50
17994;DHT22;9122;48.406;9.984;2022-08-06T10:01:22;20.90;74.90
17994;DHT22;9122;48.406;9.984;2022-08-06T10:04:25;20.90;75.20
17994;DHT22;9122;48.406;9.984;2022-08-06T10:07:10;21.00;75.10
17994;DHT22;9122;48.406;9.984;2022-08-06T10:09:55;21.00;74.40
17994;DHT22;9122;48.406;9.984;2022-08-06T10:12:41;21.10;74.40
17994;DHT22;9122;48.406;9.984;2022-08-06T10:15:29;21.10;74.20
17994;DHT22;9122;48.406;9.984;2022-08-06T10:18:39;21.20;73.80
17994;DHT22;9122;48.406;9.984;2022-08-06T10:21:29;21.20;73.80
17994;DHT22;9122;48.406;9.984;2022-08-06T10:24:17;21.20;74.20
17994;DHT22;9122;48.406;9.984;2022-08-06T10:27:06;21.20;74.60
17994;DHT22;9122;48.406;9.984;2022-08-06T10:29:53;21.20;74.10
17994;DHT22;9122;48.406;9.984;2022-08-06T10:32:52;21.30;73.90
17994;DHT22;9122;48.406;9.984;2022-08-06T10:35:38;21.20;74.10
17994;DHT22;9122;48.406;9.984;2022-08-06T10:38:26;21.30;73.90
17994;DHT22;9122;48.406;9.984;2022-08-06T10:41:14;21.30;73.90
17994;DHT22;9122;48.406;9.984;2022-08-06T10:43:58;21.30;73.80
17994;DHT22;9122;48.406;9.984;2022-08-06T10:46:44;21.30;73.50
17994;DHT22;9122;48.406;9.984;2022-08-06T10:49:30;21.40;73.30
17994;DHT22;9122;48.406;9.984;2022-08-06T10:52:16;21.50;73.50
17994;DHT22;9122;48.406;9.984;2022-08-06T10:55:03;21.50;73.70
17994;DHT22;9122;48.406;9.984;2022-08-06T10:57:48;21.70;74.30
17994;DHT22;9122;48.406;9.984;2022-08-06T11:00:33;21.80;73.20
17994;DHT22;9122;48.406;9.984;2022-08-06T11:15:15;22.20;70.70
17994;DHT22;9122;48.406;9.984;2022-08-06T11:18:04;22.20;70.30
17994;DHT22;9122;48.406;9.984;2022-08-06T11:20:51;22.30;70.00
17994;DHT22;9122;48.406;9.984;2022-08-06T11:23:36;22.30;69.40
17994;DHT22;9122;48.406;9.984;2022-08-06T11:26:36;22.30;69.30
17994;DHT22;9122;48.406;9.984;2022-08-06T11:29:20;22.40;69.80
17994;DHT22;9122;48.406;9.984;2022-08-06T11:41:44;22.50;69.60
17994;DHT22;9122;48.406;9.984;2022-08-06T11:44:32;22.40;69.20
17994;DHT22;9122;48.406;9.984;2022-08-06T11:47:18;22.50;69.20
17994;DHT22;9122;48.406;9.984;2022-08-06T11:50:22;22.40;68.70
17994;DHT22;9122;48.406;9.984;2022-08-06T11:53:07;22.40;68.40
17994;DHT22;9122;48.406;9.984;2022-08-06T11:56:04;22.40;68.10
17994;DHT22;9122;48.406;9.984;2022-08-06T11:58:49;22.40;67.80
17994;DHT22;9122;48.406;9.984;2022-08-06T12:01:47;22.40;67.90
17994;DHT22;9122;48.406;9.984;2022-08-06T12:07:31;22.40;68.00
17994;DHT22;9122;48.406;9.984;2022-08-06T12:10:18;22.40;68.00
17994;DHT22;9122;48.406;9.984;2022-08-06T12:13:02;22.40;67.70
17994;DHT22;9122;48.406;9.984;2022-08-06T12:15:47;22.40;67.90
17994;DHT22;9122;48.406;9.984;2022-08-06T12:18:37;22.50;68.10
17994;DHT22;9122;48.406;9.984;2022-08-06T12:21:23;22.50;68.80
17994;DHT22;9122;48.406;9.984;2022-08-06T12:24:08;22.50;67.50
17994;DHT22;9122;48.406;9.984;2022-08-06T12:26:54;22.50;67.20
17994;DHT22;9122;48.406;9.984;2022-08-06T12:29:39;22.50;67.30
17994;DHT22;9122;48.406;9.984;2022-08-06T12:32:34;22.50;66.40
17994;DHT22;9122;48.406;9.984;2022-08-06T12:35:19;22.50;66.20
17994;DHT22;9122;48.406;9.984;2022-08-06T12:38:09;22.50;66.30
17994;DHT22;9122;48.406;9.984;2022-08-06T12:40:57;22.50;66.60
17994;DHT22;9122;48.406;9.984;2022-08-06T12:43:43;22.50;65.50
17994;DHT22;9122;48.406;9.984;2022-08-06T12:46:31;22.50;65.70
17994;DHT22;9122;48.406;9.984;2022-08-06T12:49:16;22.50;66.00
17994;DHT22;9122;48.406;9.984;2022-08-06T12:52:16;22.50;66.00
17994;DHT22;9122;48.406;9.984;2022-08-06T12:55:17;22.50;65.90
17994;DHT22;9122;48.406;9.984;2022-08-06T12:58:02;22.50;66.60
17994;DHT22;9122;48.406;9.984;2022-08-06T13:00:53;22.60;65.60
17994;DHT22;9122;48.406;9.984;2022-08-06T13:03:42;22.60;65.40
17994;DHT22;9122;48.406;9.984;2022-08-06T13:06:27;22.60;65.50
17994;DHT22;9122;48.406;9.984;2022-08-06T13:09:12;22.60;65.00
17994;DHT22;9122;48.406;9.984;2022-08-06T13:11:57;22.60;65.20
17994;DHT22;9122;48.406;9.984;2022-08-06T13:15:00;22.60;65.80
17994;DHT22;9122;48.406;9.984;2022-08-06T13:18:04;22.70;66.30
17994;DHT22;9122;48.406;9.984;2022-08-06T13:20:49;22.70;66.50
17994;DHT22;9122;48.406;9.984;2022-08-06T13:23:36;22.70;66.20
17994;DHT22;9122;48.406;9.984;2022-08-06T13:26:26;22.80;65.00
17994;DHT22;9122;48.406;9.984;2022-08-06T13:29:18;22.80;65.10
17994;DHT22;9122;48.406;9.984;2022-08-06T13:32:08;22.80;64.90
17994;DHT22;9122;48.406;9.984;2022-08-06T13:34:58;22.90;64.50
17994;DHT22;9122;48.406;9.984;2022-08-06T13:37:49;22.90;64.30
17994;DHT22;9122;48.406;9.984;2022-08-06T13:40:44;22.90;64.70
17994;DHT22;9122;48.406;9.984;2022-08-06T13:43:37;22.90;64.50
17994;DHT22;9122;48.406;9.984;2022-08-06T13:46:23;22.90;64.50
17994;DHT22;9122;48.406;9.984;2022-08-06T13:49:09;22.90;64.30
17994;DHT22;9122;48.406;9.984;2022-08-06T13:51:55;22.90;64.50
17994;DHT22;9122;48.406;9.984;2022-08-06T13:54:40;22.90;64.70
17994;DHT22;9122;48.406;9.984;2022-08-06T13:57:24;22.90;64.60
17994;DHT22;9122;48.406;9.984;2022-08-06T14:00:09;22.90;64.60
17994;DHT22;9122;48.406;9.984;2022-08-06T14:02:55;22.90;64.90
17994;DHT22;9122;48.406;9.984;2022-08-06T14:05:42;22.90;65.10
17994;DHT22;9122;48.406;9.984;2022-08-06T14:08:26;23.00;65.00
17994;DHT22;9122;48.406;9.984;2022-08-06T14:11:11;23.00;65.10
17994;DHT22;9122;48.406;9.984;2022-08-06T14:13:55;23.00;65.30
17994;DHT22;9122;48.406;9.984;2022-08-06T14:16:40;23.00;63.70
17994;DHT22;9122;48.406;9.984;2022-08-06T14:19:26;23.00;63.50
17994;DHT22;9122;48.406;9.984;2022-08-06T14:22:10;22.90;64.20
17994;DHT22;9122;48.406;9.984;2022-08-06T14:24:55;23.00;64.40
17994;DHT22;9122;48.406;9.984;2022-08-06T14:27:40;23.00;64.00
17994;DHT22;9122;48.406;9.984;2022-08-06T14:30:24;23.00;64.20
17994;DHT22;9122;48.406;9.984;2022-08-06T14:33:09;23.00;63.70
17994;DHT22;9122;48.406;9.984;2022-08-06T14:35:53;23.00;64.30
17994;DHT22;9122;48.406;9.984;2022-08-06T14:38:38;23.00;63.50
17994;DHT22;9122;48.406;9.984;2022-08-06T14:41:25;23.00;64.10
17994;DHT22;9122;48.406;9.984;2022-08-06T14:44:28;23.00;64.80
17994;DHT22;9122;48.406;9.984;2022-08-06T14:47:32;22.90;64.40
17994;DHT22;9122;48.406;9.984;2022-08-06T14:50:18;22.90;64.50
17994;DHT22;9122;48.406;9.984;2022-08-06T14:53:03;22.90;64.70
17994;DHT22;9122;48.406;9.984;2022-08-06T14:55:47;22.90;64.70
17994;DHT22;9122;48.406;9.984;2022-08-06T14:58:32;22.90;64.50
17994;DHT22;9122;48.406;9.984;2022-08-06T15:01:16;22.90;64.50
17994;DHT22;9122;48.406;9.984;2022-08-06T15:04:02;22.90;64.40
17994;DHT22;9122;48.406;9.984;2022-08-06T15:06:46;22.90;64.50
17994;DHT22;9122;48.406;9.984;2022-08-06T15:09:31;22.90;64.70
17994;DHT22;9122;48.406;9.984;2022-08-06T15:12:16;22.90;64.70
17994;DHT22;9122;48.406;9.984;2022-08-06T15:15:05;22.90;64.70
17994;DHT22;9122;48.406;9.984;2022-08-06T15:17:49;23.00;64.90
17994;DHT22;9122;48.406;9.984;2022-08-06T15:20:33;23.00;65.40
17994;DHT22;9122;48.406;9.984;2022-08-06T15:23:18;23.00;65.20
17994;DHT22;9122;48.406;9.984;2022-08-06T15:26:02;23.00;65.20
17994;DHT22;9122;48.406;9.984;2022-08-06T15:28:47;23.00;64.50
17994;DHT22;9122;48.406;9.984;2022-08-06T15:31:32;23.00;64.50
17994;DHT22;9122;48.406;9.984;2022-08-06T15:34:17;23.00;64.50
17994;DHT22;9122;48.406;9.984;2022-08-06T15:37:01;23.00;65.00
17994;DHT22;9122;48.406;9.984;2022-08-06T15:39:47;23.00;65.10
17994;DHT22;9122;48.406;9.984;2022-08-06T15:42:31;23.00;66.00
17994;DHT22;9122;48.406;9.984;2022-08-06T15:45:15;23.00;65.30
17994;DHT22;9122;48.406;9.984;2022-08-06T15:48:00;23.00;65.00
17994;DHT22;9122;48.406;9.984;2022-08-06T15:50:45;23.00;65.10
17994;DHT22;9122;48.406;9.984;2022-08-06T15:53:30;22.90;65.10
17994;DHT22;9122;48.406;9.984;2022-08-06T15:56:15;22.90;65.50
17994;DHT22;9122;48.406;9.984;2022-08-06T15:59:00;22.90;65.10
17994;DHT22;9122;48.406;9.984;2022-08-06T16:01:44;22.90;65.20
17994;DHT22;9122;48.406;9.984;2022-08-06T16:04:29;22.90;65.10
17994;DHT22;9122;48.406;9.984;2022-08-06T16:07:14;22.90;65.00
17994;DHT22;9122;48.406;9.984;2022-08-06T16:09:59;22.90;65.30
17994;DHT22;9122;48.406;9.984;2022-08-06T16:12:44;22.90;64.70
17994;DHT22;9122;48.406;9.984;2022-08-06T16:15:28;22.90;64.30
17994;DHT22;9122;48.406;9.984;2022-08-06T16:18:13;23.00;64.70
17994;DHT22;9122;48.406;9.984;2022-08-06T16:20:59;23.00;64.30
17994;DHT22;9122;48.406;9.984;2022-08-06T16:23:44;23.00;64.10
17994;DHT22;9122;48.406;9.984;2022-08-06T16:26:28;23.00;64.20
17994;DHT22;9122;48.406;9.984;2022-08-06T16:29:13;23.00;64.50
17994;DHT22;9122;48.406;9.984;2022-08-06T16:31:58;23.00;64.50
17994;DHT22;9122;48.406;9.984;2022-08-06T16:34:43;23.00;63.30
17994;DHT22;9122;48.406;9.984;2022-08-06T16:37:28;23.00;63.10
17994;DHT22;9122;48.406;9.984;2022-08-06T16:40:12;23.00;63.10
17994;DHT22;9122;48.406;9.984;2022-08-06T16:42:57;22.90;63.50
17994;DHT22;9122;48.406;9.984;2022-08-06T16:45:41;22.90;63.50
17994;DHT22;9122;48.406;9.984;2022-08-06T16:48:26;22.90;63.70
17994;DHT22;9122;48.406;9.984;2022-08-06T16:51:10;23.00;63.30
17994;DHT22;9122;48.406;9.984;2022-08-06T16:53:58;23.00;63.70
17994;DHT22;9122;48.406;9.984;2022-08-06T16:56:43;22.90;63.80
17994;DHT22;9122;48.406;9.984;2022-08-06T16:59:27;23.00;62.40
17994;DHT22;9122;48.406;9.984;2022-08-06T17:02:12;23.00;62.20
17994;DHT22;9122;48.406;9.984;2022-08-06T17:05:16;22.90;62.00
17994;DHT22;9122;48.406;9.984;2022-08-06T17:08:01;22.90;62.10
17994;DHT22;9122;48.406;9.984;2022-08-06T17:10:46;23.00;62.30
17994;DHT22;9122;48.406;9.984;2022-08-06T17:13:30;22.90;62.50
17994;DHT22;9122;48.406;9.984;2022-08-06T17:16:15;22.90;62.50
17994;DHT22;9122;48.406;9.984;2022-08-06T17:18:59;22.90;62.60
17994;DHT22;9122;48.406;9.984;2022-08-06T17:21:45;22.90;62.80
17994;DHT22;9122;48.406;9.984;2022-08-06T17:24:31;22.90;62.90
17994;DHT22;9122;48.406;9.984;2022-08-06T17:27:16;22.90;62.90
17994;DHT22;9122;48.406;9.984;2022-08-06T17:30:00;22.90;62.70
17994;DHT22;9122;48.406;9.984;2022-08-06T17:32:45;22.90;62.60
17994;DHT22;9122;48.406;9.984;2022-08-06T17:35:31;22.90;62.60
17994;DHT22;9122;48.406;9.984;2022-08-06T17:38:16;22.90;62.60
17994;DHT22;9122;48.406;9.984;2022-08-06T17:41:00;22.90;62.60
17994;DHT22;9122;48.406;9.984;2022-08-06T17:43:45;22.90;63.00
17994;DHT22;9122;48.406;9.984;2022-08-06T17:46:30;22.90;63.10
17994;DHT22;9122;48.406;9.984;2022-08-06T17:49:15;22.90;63.30
17994;DHT22;9122;48.406;9.984;2022-08-06T17:52:00;22.80;63.30
17994;DHT22;9122;48.406;9.984;2022-08-06T17:54:45;22.80;63.50
17994;DHT22;9122;48.406;9.984;2022-08-06T17:57:32;22.80;63.80
17994;DHT22;9122;48.406;9.984;2022-08-06T18:00:16;22.80;64.50
17994;DHT22;9122;48.406;9.984;2022-08-06T18:03:01;22.80;64.90
17994;DHT22;9122;48.406;9.984;2022-08-06T18:05:46;22.80;65.60
17994;DHT22;9122;48.406;9.984;2022-08-06T18:08:32;22.80;66.50
17994;DHT22;9122;48.406;9.984;2022-08-06T18:11:17;22.80;67.20
17994;DHT22;9122;48.406;9.984;2022-08-06T18:14:01;22.80;67.70
17994;DHT22;9122;48.406;9.984;2022-08-06T18:16:46;22.80;68.10
17994;DHT22;9122;48.406;9.984;2022-08-06T18:19:30;22.80;68.50
17994;DHT22;9122;48.406;9.984;2022-08-06T18:22:14;22.70;68.80
17994;DHT22;9122;48.406;9.984;2022-08-06T18:25:00;22.70;69.00
17994;DHT22;9122;48.406;9.984;2022-08-06T18:27:45;22.70;69.20
17994;DHT22;9122;48.406;9.984;2022-08-06T18:30:30;22.70;69.50
17994;DHT22;9122;48.406;9.984;2022-08-06T18:33:14;22.70;69.90
17994;DHT22;9122;48.406;9.984;2022-08-06T18:35:59;22.70;70.30
17994;DHT22;9122;48.406;9.984;2022-08-06T18:38:43;22.70;71.20
17994;DHT22;9122;48.406;9.984;2022-08-06T18:41:28;22.70;71.80